Shenks Ferry, Pennsylvania
Current Conditions -  °F | °C
As of 2:53 AM on Sunday 23 Nov 2014 (Local Time) from KLNS Reporting Station
Overcast Overcast  
Wind Chill: 34°   Ceiling: 11000
Heat Index: 34°   Visibility: 9mi
Dew Point: 24°   Wind: 0mph
Humidity: 67%   Direction: NA
Pressure: 30.18"   Gusts: NA
Location:  39.8814°N, 76.4755°W
Report Text: KLNS 230753Z AUTO 00000KT 9SM OVC110 01/M04 A3018 RMK AO2 SLP221 T00111044
Loading
Personal Weather Stations






























Interactive Weather Map New forecast layout! Learn more

10-Day Weather Forecast

Advertisements
Track Severe Weather on mobile